Time;durP1;ratioP1;P1;durP2;ratioP2;P2;SDS_P1;SDS_P2;PMS_P1;PMS_P2;Temp;Humidity;BMP_temperature;BMP_pressure;BME280_temperature;BME280_humidity;BME280_pressure;Samples;Min_cycle;Max_cycle;Signal;HPM_P1;HPM_P2
2023/12/29 00:01:19;;;;;;;5.18;1.38;;;;;;;9.49;100.00;100449.03;7402269;19;19946;-71
2023/12/29 00:03:48;;;;;;;9.85;1.60;;;;;;;9.49;100.00;100432.88;7402369;19;19946;-71
2023/12/29 00:06:16;;;;;;;7.43;1.33;;;;;;;9.53;100.00;100428.81;7401641;19;19923;-72
2023/12/29 00:08:47;;;;;;;6.60;1.90;;;;;;;9.58;100.00;100427.25;7403143;19;20340;-72
2023/12/29 00:11:19;;;;;;;11.05;1.65;;;;;;;9.61;100.00;100414.47;7401129;19;19938;-72
2023/12/29 00:13:48;;;;;;;9.23;2.60;;;;;;;9.62;100.00;100421.53;7401770;19;19930;-72
2023/12/29 00:16:17;;;;;;;5.90;2.10;;;;;;;9.62;100.00;100413.44;7401822;19;19915;-72
2023/12/29 00:18:46;;;;;;;6.10;1.55;;;;;;;9.63;100.00;100407.88;7401613;19;19950;-72
2023/12/29 00:21:15;;;;;;;6.45;1.30;;;;;;;9.66;100.00;100412.06;7401946;19;19922;-72
2023/12/29 00:23:44;;;;;;;10.73;1.85;;;;;;;9.66;99.63;100407.53;7401517;19;19922;-72
2023/12/29 00:26:15;;;;;;;6.05;1.23;;;;;;;9.73;98.82;100432.66;7401165;19;19914;-72
2023/12/29 00:28:44;;;;;;;5.60;1.17;;;;;;;9.76;98.26;100432.28;7401858;19;20308;-72
2023/12/29 00:31:17;;;;;;;5.28;1.17;;;;;;;9.86;98.12;100416.75;7400765;19;20302;-72
2023/12/29 00:33:45;;;;;;;7.63;2.55;;;;;;;9.85;97.81;100431.19;7401044;19;19922;-72
2023/12/29 00:36:17;;;;;;;5.88;0.95;;;;;;;9.87;97.37;100401.44;7401672;19;19929;-72
2023/12/29 00:38:46;;;;;;;7.15;1.33;;;;;;;9.85;98.22;100407.00;7400733;19;19922;-73
2023/12/29 00:41:17;;;;;;;4.90;1.67;;;;;;;9.84;98.08;100407.16;7401156;19;20257;-72
2023/12/29 00:43:46;;;;;;;4.68;0.88;;;;;;;9.85;97.67;100420.44;7400318;19;19925;-72
2023/12/29 00:46:17;;;;;;;4.40;1.40;;;;;;;9.85;97.43;100411.53;7401237;19;19914;-72
2023/12/29 00:48:46;;;;;;;9.63;1.50;;;;;;;9.88;97.25;100405.81;7400102;19;19914;-72
2023/12/29 00:51:14;;;;;;;8.18;1.42;;;;;;;9.89;96.94;100416.38;7400599;19;19930;-72
2023/12/29 00:53:43;;;;;;;8.70;1.48;;;;;;;9.92;96.44;100407.09;7399883;19;19918;-72
2023/12/29 00:56:17;;;;;;;4.97;1.20;;;;;;;9.92;96.13;100391.78;7400919;19;20280;-72
2023/12/29 00:58:46;;;;;;;6.07;1.40;;;;;;;9.94;95.87;100378.97;7400442;19;19927;-72
2023/12/29 01:01:14;;;;;;;4.60;1.10;;;;;;;9.93;96.15;100377.31;7400652;19;19914;-72
2023/12/29 01:03:43;;;;;;;8.73;1.52;;;;;;;9.90;96.11;100396.50;7400241;19;20404;-72
2023/12/29 01:06:12;;;;;;;6.38;1.20;;;;;;;9.90;95.91;100377.69;7400478;19;19933;-72
2023/12/29 01:09:00;;;;;;;5.25;1.33;;;;;;;9.88;95.96;100385.09;7398359;19;19915;-71
2023/12/29 01:11:51;;;;;;;7.05;1.30;;;;;;;9.89;95.79;100384.06;7397110;19;19925;-72
2023/12/29 01:14:20;;;;;;;5.75;1.00;;;;;;;9.92;96.59;100390.97;7400052;19;19922;-72
2023/12/29 01:16:49;;;;;;;4.57;1.50;;;;;;;9.85;98.36;100365.78;7399287;19;19914;-72
2023/12/29 01:19:17;;;;;;;7.88;1.45;;;;;;;9.78;99.95;100381.00;7399583;19;19967;-73
2023/12/29 01:21:47;;;;;;;4.97;1.20;;;;;;;9.69;100.00;100384.78;7400043;19;19922;-72
2023/12/29 01:24:15;;;;;;;8.65;1.85;;;;;;;9.59;100.00;100368.91;7398190;19;19918;-72
2023/12/29 01:26:44;;;;;;;14.98;2.35;;;;;;;9.52;100.00;100393.03;7400037;19;19979;-72
2023/12/29 01:29:16;;;;;;;7.95;1.60;;;;;;;9.47;100.00;100373.91;7398702;19;20333;-72
2023/12/29 01:31:44;;;;;;;7.00;1.13;;;;;;;9.44;100.00;100389.56;7399486;19;19974;-72
2023/12/29 01:34:13;;;;;;;6.53;1.33;;;;;;;9.42;100.00;100368.25;7398495;19;19987;-72
2023/12/29 01:36:42;;;;;;;8.82;1.55;;;;;;;9.38;100.00;100363.41;7399326;19;19915;-72
2023/12/29 01:39:10;;;;;;;6.05;1.15;;;;;;;9.36;100.00;100363.56;7398562;19;19926;-72
2023/12/29 01:41:39;;;;;;;6.57;1.83;;;;;;;9.34;100.00;100356.72;7398966;19;19946;-72
2023/12/29 01:44:26;;;;;;;5.55;1.40;;;;;;;9.35;100.00;100375.38;7399872;19;19922;-73
2023/12/29 01:46:57;;;;;;;7.40;1.48;;;;;;;9.31;100.00;100355.25;7397706;19;19922;-72
2023/12/29 01:49:26;;;;;;;5.28;1.50;;;;;;;9.35;100.00;100353.03;7398714;19;19930;-72
2023/12/29 01:51:57;;;;;;;6.35;1.27;;;;;;;9.39;100.00;100378.53;7397064;19;20025;-72
2023/12/29 01:54:30;;;;;;;7.30;1.42;;;;;;;9.40;100.00;100372.97;7398762;19;19987;-72
2023/12/29 01:57:02;;;;;;;5.72;1.40;;;;;;;9.41;100.00;100369.25;7398404;19;19922;-72
2023/12/29 01:59:34;;;;;;;11.07;2.30;;;;;;;9.47;100.00;100399.97;7398695;19;19943;-72
2023/12/29 02:02:03;;;;;;;8.45;1.33;;;;;;;9.42;100.00;100410.41;7397102;19;19914;-72
2023/12/29 02:04:33;;;;;;;3.13;1.10;;;;;;;9.34;100.00;100397.03;7402625;19;19922;-72
2023/12/29 02:07:02;;;;;;;5.93;1.70;;;;;;;9.25;99.56;100395.44;7403995;19;19987;-72
2023/12/29 02:09:33;;;;;;;6.68;1.80;;;;;;;9.06;99.49;100440.56;7403364;19;19910;-72
2023/12/29 02:12:02;;;;;;;4.95;0.60;;;;;;;8.77;100.00;100378.63;7392665;19;19911;-72
2023/12/29 02:14:33;;;;;;;2.83;0.55;;;;;;;8.60;100.00;100358.25;7401804;19;19974;-72
2023/12/29 02:17:10;;;;;;;4.55;1.42;;;;;;;8.44;100.00;100367.25;7404153;19;19934;-72
2023/12/29 02:19:44;;;;;;;1.08;0.52;;;;;;;8.08;100.00;100403.59;7403244;19;19911;-71
2023/12/29 02:22:14;;;;;;;2.40;0.43;;;;;;;7.53;100.00;100371.38;7404115;19;19928;-72
2023/12/29 02:24:43;;;;;;;1.88;0.50;;;;;;;7.09;100.00;100333.38;7403532;19;19922;-72
2023/12/29 02:27:25;;;;;;;2.17;0.40;;;;;;;6.76;100.00;100426.22;7403040;19;19928;-71
2023/12/29 02:30:05;;;;;;;2.65;0.50;;;;;;;6.34;100.00;100426.25;7403596;19;19922;-72
2023/12/29 02:32:38;;;;;;;3.25;0.70;;;;;;;6.11;100.00;100372.50;7403427;19;19985;-71
2023/12/29 02:35:09;;;;;;;6.45;0.50;;;;;;;6.06;100.00;100379.31;7403973;19;19915;-72
2023/12/29 02:37:39;;;;;;;4.72;0.98;;;;;;;6.00;100.00;100358.56;7402758;19;19911;-72
2023/12/29 02:40:10;;;;;;;4.20;0.90;;;;;;;5.94;100.00;100344.00;7399187;19;19915;-72
2023/12/29 02:42:41;;;;;;;3.03;0.60;;;;;;;5.94;100.00;100346.69;7403713;19;19932;-72
2023/12/29 02:45:11;;;;;;;6.32;1.17;;;;;;;5.95;100.00;100374.25;7402906;19;19921;-71
2023/12/29 02:47:39;;;;;;;4.93;0.73;;;;;;;5.98;100.00;100403.34;7402712;19;19922;-72
2023/12/29 02:50:08;;;;;;;5.82;1.08;;;;;;;6.04;100.00;100411.53;7403352;19;19950;-72
2023/12/29 02:52:37;;;;;;;7.07;1.02;;;;;;;6.08;100.00;100399.56;7403815;19;20351;-72
2023/12/29 02:55:06;;;;;;;6.03;0.93;;;;;;;6.12;100.00;100360.81;7403379;19;19915;-72
2023/12/29 02:57:35;;;;;;;3.58;1.25;;;;;;;6.21;100.00;100365.16;7403794;19;19945;-72
2023/12/29 03:00:08;;;;;;;3.60;0.85;;;;;;;6.26;100.00;100357.50;7401935;19;19939;-72
2023/12/29 03:02:37;;;;;;;5.40;0.68;;;;;;;6.35;100.00;100377.91;7402701;19;19930;-72
2023/12/29 03:05:06;;;;;;;7.88;1.30;;;;;;;6.51;100.00;100368.28;7402742;19;19919;-72
2023/12/29 03:07:35;;;;;;;10.18;1.20;;;;;;;6.63;100.00;100349.09;7403146;19;20367;-72
2023/12/29 03:10:04;;;;;;;4.65;1.15;;;;;;;6.74;100.00;100347.91;7402716;19;19942;-72
2023/12/29 03:12:33;;;;;;;9.80;1.83;;;;;;;6.77;100.00;100332.34;7402488;19;19935;-72
2023/12/29 03:15:01;;;;;;;7.38;1.10;;;;;;;6.85;100.00;100328.88;7400532;19;19924;-72
2023/12/29 03:17:33;;;;;;;8.35;0.93;;;;;;;6.92;100.00;100329.03;7402949;19;19978;-72
2023/12/29 03:20:02;;;;;;;8.93;1.23;;;;;;;6.97;100.00;100326.69;7402746;19;19938;-72
2023/12/29 03:22:31;;;;;;;10.35;1.13;;;;;;;7.06;100.00;100328.38;7403157;19;20285;-72
2023/12/29 03:25:00;;;;;;;6.72;1.77;;;;;;;7.15;100.00;100316.66;7402044;19;20333;-72
2023/12/29 03:27:28;;;;;;;12.05;1.85;;;;;;;7.26;100.00;100317.13;7402467;19;19918;-72
2023/12/29 03:30:17;;;;;;;11.10;2.50;;;;;;;7.41;100.00;100305.72;7401171;19;19919;-72
2023/12/29 03:32:48;;;;;;;6.80;1.40;;;;;;;7.51;100.00;100322.44;7403543;19;20427;-72
2023/12/29 03:35:17;;;;;;;4.32;1.20;;;;;;;7.59;100.00;100292.97;7402188;19;19915;-72
2023/12/29 03:37:45;;;;;;;6.88;1.20;;;;;;;7.73;100.00;100284.19;7402082;19;20328;-72
2023/12/29 03:40:15;;;;;;;6.93;1.77;;;;;;;7.81;100.00;100299.44;7401899;19;19941;-72
2023/12/29 03:42:44;;;;;;;9.90;2.05;;;;;;;7.94;100.00;100311.25;7401564;19;19919;-72
2023/12/29 03:45:13;;;;;;;7.25;1.50;;;;;;;8.00;100.00;100307.06;7402514;19;20335;-72
2023/12/29 03:47:41;;;;;;;9.80;1.70;;;;;;;8.12;100.00;100302.97;7401403;19;20585;-72
2023/12/29 03:50:13;;;;;;;9.75;1.70;;;;;;;8.18;100.00;100326.44;7402651;19;19922;-72
2023/12/29 03:52:41;;;;;;;8.73;1.55;;;;;;;8.27;100.00;100289.66;7402129;19;19915;-73
2023/12/29 03:55:11;;;;;;;9.57;1.85;;;;;;;8.32;100.00;100290.00;7402605;19;19915;-72
2023/12/29 03:57:39;;;;;;;12.05;2.03;;;;;;;8.42;100.00;100304.00;7401025;19;19914;-72
2023/12/29 04:00:10;;;;;;;7.80;1.40;;;;;;;8.52;100.00;100288.53;7401961;19;19921;-72
2023/12/29 04:02:38;;;;;;;14.20;2.35;;;;;;;8.53;100.00;100291.03;7401734;19;19922;-73
2023/12/29 04:05:12;;;;;;;13.52;2.05;;;;;;;8.56;100.00;100284.47;7402352;19;19925;-72
2023/12/29 04:07:42;;;;;;;17.58;2.88;;;;;;;8.61;100.00;100296.34;7401483;19;19935;-72
2023/12/29 04:10:11;;;;;;;11.77;2.50;;;;;;;8.64;100.00;100287.94;7402182;19;19929;-72
2023/12/29 04:12:39;;;;;;;13.18;2.40;;;;;;;8.69;100.00;100292.75;7400725;19;19919;-72
2023/12/29 04:15:09;;;;;;;14.05;1.80;;;;;;;8.70;100.00;100317.78;7401957;19;19918;-72
2023/12/29 04:17:37;;;;;;;9.82;1.80;;;;;;;8.70;100.00;100301.66;7401821;19;19953;-72
2023/12/29 04:20:07;;;;;;;11.80;2.05;;;;;;;8.72;100.00;100292.41;7400121;19;19915;-73
2023/12/29 04:22:39;;;;;;;12.95;2.17;;;;;;;8.73;100.00;100320.94;7400981;19;19927;-72
2023/12/29 04:25:08;;;;;;;13.40;2.67;;;;;;;8.77;100.00;100314.19;7400381;19;19918;-73
2023/12/29 04:27:37;;;;;;;11.45;2.42;;;;;;;8.79;100.00;100306.81;7400246;19;20625;-72
2023/12/29 04:30:07;;;;;;;14.02;1.92;;;;;;;8.80;100.00;100308.44;7401039;19;19942;-72
2023/12/29 04:32:35;;;;;;;9.68;3.05;;;;;;;8.83;100.00;100321.53;7401103;19;19918;-72
2023/12/29 04:35:04;;;;;;;13.27;1.80;;;;;;;8.89;100.00;100304.69;7400375;19;19918;-73
2023/12/29 04:37:33;;;;;;;14.32;2.47;;;;;;;8.94;100.00;100294.25;7400940;19;19914;-73
2023/12/29 04:40:04;;;;;;;16.70;3.17;;;;;;;8.97;100.00;100317.25;7400490;19;19922;-72
2023/12/29 04:42:33;;;;;;;9.73;2.13;;;;;;;9.02;100.00;100310.28;7400844;19;19954;-73
2023/12/29 04:45:01;;;;;;;17.83;2.40;;;;;;;9.06;100.00;100308.91;7400822;19;19933;-73
2023/12/29 04:47:30;;;;;;;12.68;1.92;;;;;;;9.05;100.00;100309.94;7400534;19;19919;-72
2023/12/29 04:49:59;;;;;;;15.77;2.58;;;;;;;9.02;99.35;100323.72;7400148;19;19914;-73
2023/12/29 04:52:27;;;;;;;14.95;2.20;;;;;;;9.07;98.59;100310.59;7400829;19;19927;-73
2023/12/29 04:54:56;;;;;;;13.18;2.50;;;;;;;9.09;97.66;100313.94;7400241;19;19915;-73
2023/12/29 04:57:28;;;;;;;16.67;2.22;;;;;;;9.10;96.64;100312.91;7399836;19;20589;-72
2023/12/29 04:59:56;;;;;;;9.63;2.45;;;;;;;9.13;95.92;100318.94;7400641;19;19923;-72
2023/12/29 05:02:25;;;;;;;11.60;2.63;;;;;;;9.14;96.05;100344.81;7400198;19;19930;-72
2023/12/29 05:04:53;;;;;;;14.73;2.10;;;;;;;9.12;96.34;100334.22;7400100;19;19932;-72
2023/12/29 05:07:22;;;;;;;12.65;1.98;;;;;;;9.05;96.95;100334.13;7399026;19;19914;-72
2023/12/29 05:09:51;;;;;;;14.35;2.60;;;;;;;9.08;97.24;100365.16;7400072;19;19930;-72
2023/12/29 05:12:19;;;;;;;15.05;2.50;;;;;;;9.08;98.00;100355.25;7399490;19;20298;-72
2023/12/29 05:14:50;;;;;;;18.25;2.28;;;;;;;9.06;98.84;100357.28;7399883;19;19919;-72
2023/12/29 05:17:19;;;;;;;15.10;2.42;;;;;;;9.03;99.41;100365.69;7398743;19;19925;-72
2023/12/29 05:19:47;;;;;;;6.60;1.85;;;;;;;9.03;99.55;100363.00;7400225;19;20261;-72
2023/12/29 05:22:17;;;;;;;9.43;1.90;;;;;;;9.02;99.77;100372.09;7400153;19;19922;-72
2023/12/29 05:24:47;;;;;;;14.02;1.83;;;;;;;9.00;100.00;100354.47;7399245;19;19932;-72
2023/12/29 05:27:16;;;;;;;11.40;1.95;;;;;;;9.02;100.00;100345.22;7399505;19;19936;-72
2023/12/29 05:29:44;;;;;;;12.80;1.80;;;;;;;9.00;100.00;100379.50;7398615;19;19939;-72
2023/12/29 05:32:15;;;;;;;15.35;2.33;;;;;;;9.02;99.84;100360.50;7400089;19;19938;-72
2023/12/29 05:34:44;;;;;;;21.40;3.28;;;;;;;9.02;100.00;100377.47;7398333;19;19919;-72
2023/12/29 05:37:12;;;;;;;9.02;2.45;;;;;;;9.06;99.15;100361.84;7400066;19;19915;-72
2023/12/29 05:39:44;;;;;;;18.48;2.03;;;;;;;9.06;98.61;100375.28;7403063;19;19927;-72
2023/12/29 05:42:13;;;;;;;15.15;2.63;;;;;;;9.09;98.42;100370.38;7404776;19;19925;-72
2023/12/29 05:44:41;;;;;;;12.10;2.78;;;;;;;9.07;97.92;100382.28;7403729;19;19938;-72
2023/12/29 05:47:10;;;;;;;13.70;2.20;;;;;;;9.09;97.45;100377.59;7404871;19;19933;-72
2023/12/29 05:49:41;;;;;;;10.02;2.47;;;;;;;9.08;95.90;100375.91;7404250;19;19941;-72
2023/12/29 05:52:10;;;;;;;19.77;3.58;;;;;;;9.13;94.82;100388.81;7403983;19;20344;-72
2023/12/29 05:54:39;;;;;;;14.52;2.38;;;;;;;9.17;94.35;100361.41;7403226;19;19919;-72
2023/12/29 05:57:08;;;;;;;16.08;2.15;;;;;;;9.16;93.93;100367.78;7404922;19;19919;-72
2023/12/29 05:59:36;;;;;;;14.48;1.65;;;;;;;9.12;93.07;100374.53;7403996;19;19922;-72
2023/12/29 06:02:05;;;;;;;13.60;2.25;;;;;;;9.15;92.86;100376.03;7404430;19;19925;-72
2023/12/29 06:04:34;;;;;;;15.98;1.90;;;;;;;9.17;91.75;100368.63;7403923;19;19922;-72
2023/12/29 06:07:06;;;;;;;14.50;2.13;;;;;;;9.17;91.03;100364.09;7403589;19;19930;-72
2023/12/29 06:09:34;;;;;;;14.82;2.33;;;;;;;9.16;90.92;100358.88;7404013;19;19919;-72
2023/12/29 06:12:03;;;;;;;17.05;2.17;;;;;;;9.18;90.52;100359.56;7403621;19;19918;-72
2023/12/29 06:14:32;;;;;;;10.98;1.58;;;;;;;9.21;90.69;100367.25;7402172;19;19922;-72
2023/12/29 06:17:01;;;;;;;9.68;1.73;;;;;;;9.21;89.77;100359.19;7403846;19;19929;-72
2023/12/29 06:19:32;;;;;;;12.95;2.17;;;;;;;9.19;89.61;100361.22;7404069;19;19936;-71
2023/12/29 06:22:23;;;;;;;12.77;1.60;;;;;;;9.21;89.90;100359.19;7402604;19;19926;-71
2023/12/29 06:24:53;;;;;;;13.75;2.53;;;;;;;9.24;89.01;100364.19;7403937;19;19929;-72
2023/12/29 06:27:22;;;;;;;15.55;2.88;;;;;;;9.24;89.12;100356.97;7404093;19;19918;-72
2023/12/29 06:29:50;;;;;;;13.88;2.35;;;;;;;9.27;89.17;100369.22;7403843;19;19922;-71
2023/12/29 06:32:20;;;;;;;12.88;2.22;;;;;;;9.27;88.48;100359.31;7404658;19;20391;-72
2023/12/29 06:34:49;;;;;;;14.57;2.50;;;;;;;9.31;88.02;100343.66;7403058;19;20555;-71
2023/12/29 06:37:18;;;;;;;17.73;2.10;;;;;;;9.29;88.63;100340.28;7403954;19;19918;-72
2023/12/29 06:39:49;;;;;;;10.65;1.85;;;;;;;9.25;88.16;100344.38;7402785;19;19915;-72
2023/12/29 06:42:38;;;;;;;12.90;1.60;;;;;;;9.23;89.11;100359.84;7401717;19;19948;-72
2023/12/29 06:45:09;;;;;;;13.13;2.17;;;;;;;9.20;90.60;100334.16;7403610;19;19914;-72
2023/12/29 06:47:38;;;;;;;13.43;2.30;;;;;;;9.14;91.60;100336.75;7402606;19;19923;-72
2023/12/29 06:50:12;;;;;;;16.48;3.50;;;;;;;9.07;92.19;100347.38;7402717;19;19922;-72
2023/12/29 06:52:41;;;;;;;14.55;2.33;;;;;;;9.01;93.03;100334.66;7402693;19;19922;-72
2023/12/29 06:55:12;;;;;;;17.10;2.45;;;;;;;8.97;94.47;100355.66;7403458;19;19930;-72
2023/12/29 06:57:41;;;;;;;12.48;1.98;;;;;;;8.91;95.80;100332.22;7403331;19;19923;-72
2023/12/29 07:00:11;;;;;;;12.73;2.00;;;;;;;8.88;96.82;100327.22;7403248;19;19934;-72
2023/12/29 07:02:42;;;;;;;12.43;1.88;;;;;;;8.83;97.54;100329.59;7401937;19;20344;-72
2023/12/29 07:05:11;;;;;;;10.13;2.65;;;;;;;8.83;97.91;100308.09;7402636;19;19933;-72
2023/12/29 07:07:39;;;;;;;15.73;2.55;;;;;;;8.82;99.02;100348.56;7402561;19;19918;-72
2023/12/29 07:10:14;;;;;;;16.60;2.70;;;;;;;8.83;99.51;100345.72;7402852;19;19938;-71
2023/12/29 07:12:43;;;;;;;10.13;2.03;;;;;;;8.82;99.74;100337.81;7402748;19;19929;-72
2023/12/29 07:15:13;;;;;;;14.50;2.25;;;;;;;8.78;100.00;100329.28;7402148;19;19941;-72
2023/12/29 07:17:42;;;;;;;12.55;2.13;;;;;;;8.76;100.00;100339.34;7402917;19;19926;-72
2023/12/29 07:20:11;;;;;;;14.80;2.17;;;;;;;8.75;100.00;100334.19;7401942;19;19918;-72
2023/12/29 07:22:40;;;;;;;19.52;3.00;;;;;;;8.76;100.00;100338.56;7402624;19;19926;-72
2023/12/29 07:25:12;;;;;;;9.13;2.22;;;;;;;8.77;100.00;100337.50;7401904;19;19950;-72
2023/12/29 07:27:41;;;;;;;;;;;;;;;8.74;100.00;100345.94;7405071;19;19922;-72
2023/12/29 07:30:29;;;;;;;15.77;2.03;;;;;;;8.74;100.00;100341.41;7401047;19;20297;-72
2023/12/29 07:32:58;;;;;;;18.05;2.40;;;;;;;8.73;100.00;100350.47;7402745;19;20336;-71
2023/12/29 07:35:27;;;;;;;13.27;1.65;;;;;;;8.76;99.95;100344.72;7401935;19;20339;-72
2023/12/29 07:37:55;;;;;;;16.98;2.47;;;;;;;8.76;100.00;100338.56;7402118;19;19929;-72
2023/12/29 07:40:27;;;;;;;12.25;1.90;;;;;;;8.74;100.00;100354.84;7402333;19;19914;-72
2023/12/29 07:42:55;;;;;;;16.20;2.63;;;;;;;8.73;100.00;100350.47;7401769;19;19918;-72
2023/12/29 07:45:24;;;;;;;18.48;2.28;;;;;;;8.76;100.00;100343.94;7401990;19;19922;-72
2023/12/29 07:47:53;;;;;;;11.77;2.13;;;;;;;8.77;100.00;100335.66;7400907;19;19923;-72
2023/12/29 07:50:22;;;;;;;11.52;2.25;;;;;;;8.81;100.00;100363.00;7402204;19;19919;-72
2023/12/29 07:52:50;;;;;;;19.30;2.90;;;;;;;8.78;100.00;100331.97;7400892;19;19927;-72
2023/12/29 07:55:43;;;;;;;18.33;2.85;;;;;;;8.76;100.00;100355.47;7399852;19;19937;-72
2023/12/29 07:58:12;;;;;;;21.10;2.40;;;;;;;8.74;100.00;100348.63;7402176;19;19930;-71
2023/12/29 08:00:40;;;;;;;15.93;2.67;;;;;;;8.72;100.00;100356.84;7399341;19;20263;-72
2023/12/29 08:03:09;;;;;;;20.23;3.65;;;;;;;8.70;100.00;100356.19;7401190;19;20295;-72
2023/12/29 08:05:38;;;;;;;11.20;2.10;;;;;;;8.67;100.00;100356.56;7401102;19;19926;-71
2023/12/29 08:08:07;;;;;;;12.60;2.67;;;;;;;8.63;100.00;100371.31;7401611;19;19915;-72
2023/12/29 08:10:59;;;;;;;20.13;3.00;;;;;;;8.61;100.00;100338.47;7399092;19;20022;-72
2023/12/29 08:13:27;;;;;;;11.05;1.73;;;;;;;8.63;100.00;100355.22;7402044;19;19906;-72
2023/12/29 08:15:56;;;;;;;16.77;2.08;;;;;;;8.68;100.00;100358.22;7401113;19;19919;-72
2023/12/29 08:18:24;;;;;;;16.83;2.85;;;;;;;8.72;100.00;100359.53;7400066;19;19925;-72
2023/12/29 08:20:53;;;;;;;17.17;2.85;;;;;;;8.72;100.00;100358.69;7400981;19;19926;-72
2023/12/29 08:23:21;;;;;;;12.93;2.63;;;;;;;8.75;100.00;100375.31;7400713;19;19915;-72
2023/12/29 08:25:51;;;;;;;21.55;2.78;;;;;;;8.77;100.00;100365.22;7401203;19;19930;-72
2023/12/29 08:28:22;;;;;;;17.63;2.17;;;;;;;8.76;100.00;100376.16;7400660;19;19922;-71
2023/12/29 08:30:50;;;;;;;16.73;2.30;;;;;;;8.80;100.00;100367.53;7400960;19;20370;-72
2023/12/29 08:33:19;;;;;;;16.45;2.90;;;;;;;8.83;100.00;100358.31;7399461;19;19918;-72
2023/12/29 08:35:48;;;;;;;16.23;3.25;;;;;;;8.82;100.00;100368.19;7400993;19;19922;-72
2023/12/29 08:38:17;;;;;;;16.98;2.47;;;;;;;8.90;98.89;100394.16;7400424;19;19925;-72
2023/12/29 08:40:45;;;;;;;16.48;2.50;;;;;;;8.92;97.88;100376.03;7400868;19;20359;-72
2023/12/29 08:43:15;;;;;;;16.48;2.08;;;;;;;8.95;97.52;100371.13;7400970;19;19921;-72
2023/12/29 08:45:47;;;;;;;10.48;1.67;;;;;;;9.00;97.17;100379.50;7400801;19;19914;-72
2023/12/29 08:48:15;;;;;;;13.98;2.60;;;;;;;9.00;97.67;100384.03;7400262;19;19910;-72
2023/12/29 08:50:45;;;;;;;16.17;2.40;;;;;;;9.02;98.13;100360.50;7401589;19;20252;-72
2023/12/29 08:53:14;;;;;;;16.63;3.05;;;;;;;9.02;98.61;100355.13;7400869;19;19942;-72
2023/12/29 08:55:42;;;;;;;15.00;3.10;;;;;;;8.98;99.13;100369.94;7400729;19;19914;-72
2023/12/29 08:58:15;;;;;;;14.90;2.35;;;;;;;8.97;98.84;100363.72;7400220;19;19942;-72
2023/12/29 09:00:46;;;;;;;17.98;2.22;;;;;;;8.97;98.83;100373.66;7397376;19;20446;-72
2023/12/29 09:03:15;;;;;;;19.00;2.35;;;;;;;8.96;98.30;100367.44;7401030;19;19915;-73
2023/12/29 09:05:44;;;;;;;14.15;2.05;;;;;;;8.95;98.57;100360.38;7399372;19;19926;-72
2023/12/29 09:08:12;;;;;;;15.60;2.63;;;;;;;8.97;98.42;100352.97;7400216;19;19922;-72
2023/12/29 09:10:41;;;;;;;13.48;2.00;;;;;;;8.97;98.65;100363.72;7399719;19;19919;-72
2023/12/29 09:13:09;;;;;;;14.48;2.40;;;;;;;8.99;98.91;100350.13;7396662;19;19919;-72
2023/12/29 09:15:38;;;;;;;11.23;2.05;;;;;;;9.01;99.20;100351.63;7398923;19;19911;-72
2023/12/29 09:18:10;;;;;;;14.30;1.92;;;;;;;9.01;98.83;100351.63;7399990;19;19936;-72
2023/12/29 09:20:39;;;;;;;16.55;1.95;;;;;;;9.04;98.01;100374.59;7399654;19;19914;-72
2023/12/29 09:23:08;;;;;;;14.65;2.05;;;;;;;9.06;97.78;100357.28;7400507;19;20724;-72
2023/12/29 09:25:37;;;;;;;15.70;2.53;;;;;;;9.03;97.35;100352.28;7399423;19;19922;-72
2023/12/29 09:28:06;;;;;;;14.00;2.35;;;;;;;9.06;97.33;100372.59;7400030;19;19911;-72
2023/12/29 09:30:35;;;;;;;17.48;2.63;;;;;;;9.08;96.47;100366.00;7399313;19;19925;-72
2023/12/29 09:33:04;;;;;;;14.90;2.58;;;;;;;9.13;96.12;100365.47;7399064;19;19918;-72
2023/12/29 09:35:36;;;;;;;20.13;2.42;;;;;;;9.15;95.96;100376.03;7399668;19;19914;-72
2023/12/29 09:38:04;;;;;;;15.25;2.10;;;;;;;9.16;95.56;100362.41;7398662;19;19915;-72
2023/12/29 09:40:55;;;;;;;12.73;2.38;;;;;;;9.17;95.88;100372.16;7398234;19;19914;-72
2023/12/29 09:43:24;;;;;;;12.60;2.15;;;;;;;9.15;95.99;100370.66;7398744;19;19919;-72
2023/12/29 09:45:55;;;;;;;14.15;2.88;;;;;;;9.19;95.95;100374.66;7397893;19;19926;-72
2023/12/29 09:48:28;;;;;;;13.38;2.10;;;;;;;9.21;96.03;100386.91;7398164;19;19954;-72
2023/12/29 09:50:59;;;;;;;9.93;1.88;;;;;;;9.26;95.05;100372.91;7397877;19;19930;-72
2023/12/29 09:53:29;;;;;;;14.73;3.22;;;;;;;9.29;95.35;100377.94;7398624;19;19918;-72
2023/12/29 09:55:59;;;;;;;10.73;1.58;;;;;;;9.29;94.95;100364.50;7397478;19;19927;-72
2023/12/29 09:58:28;;;;;;;16.77;2.38;;;;;;;9.31;95.00;100374.06;7398114;19;19918;-72
2023/12/29 10:00:57;;;;;;;10.00;1.67;;;;;;;9.35;94.74;100364.63;7397784;19;19934;-72
2023/12/29 10:03:25;;;;;;;9.27;1.98;;;;;;;9.33;94.57;100352.34;7398566;19;20323;-72
2023/12/29 10:06:02;;;;;;;17.35;2.88;;;;;;;9.38;94.54;100363.41;7398009;19;20279;-72
2023/12/29 10:08:32;;;;;;;12.48;1.95;;;;;;;9.41;94.80;100366.56;7398479;19;19918;-72
2023/12/29 10:11:03;;;;;;;11.77;2.03;;;;;;;9.38;94.81;100366.94;7397848;19;19915;-72
2023/12/29 10:13:34;;;;;;;16.20;3.13;;;;;;;9.43;94.93;100363.69;7397804;19;20331;-72
2023/12/29 10:16:10;;;;;;;13.35;2.25;;;;;;;9.43;94.74;100371.75;7396715;19;20344;-72
2023/12/29 10:18:46;;;;;;;10.85;2.22;;;;;;;9.41;94.90;100361.19;7396603;19;19922;-72
2023/12/29 10:21:25;;;;;;;12.15;2.72;;;;;;;9.40;95.16;100364.06;7398206;19;19935;-73
2023/12/29 10:24:18;;;;;;;10.13;1.75;;;;;;;9.39;95.61;100378.53;7397471;19;19963;-72
2023/12/29 10:26:47;;;;;;;14.05;2.42;;;;;;;9.39;95.55;100363.22;7403001;19;19914;-71
2023/12/29 10:29:18;;;;;;;14.15;2.00;;;;;;;9.39;95.95;100373.16;7403571;19;19925;-72
2023/12/29 10:31:47;;;;;;;13.20;2.67;;;;;;;9.37;95.93;100377.84;7402677;19;20363;-72
2023/12/29 10:34:28;;;;;;;11.13;1.60;;;;;;;9.37;96.43;100367.94;7403929;19;19918;-72
2023/12/29 10:37:01;;;;;;;7.85;1.90;;;;;;;9.42;96.42;100388.91;7402826;19;19914;-72
2023/12/29 10:39:29;;;;;;;16.95;2.08;;;;;;;9.41;96.64;100374.63;7402787;19;19948;-71
2023/12/29 10:42:07;;;;;;;8.35;1.92;;;;;;;9.42;96.93;100379.00;7403535;19;19915;-71
2023/12/29 10:45:08;;;;;;;13.23;2.00;;;;;;;9.42;97.18;100356.66;7401702;19;19974;-71
2023/12/29 10:47:38;;;;;;;18.52;2.78;;;;;;;9.43;97.38;100356.47;7402212;19;19922;-72
2023/12/29 10:50:07;;;;;;;12.80;2.75;;;;;;;9.44;96.95;100368.91;7402762;19;19954;-72
2023/12/29 10:52:40;;;;;;;13.82;2.38;;;;;;;9.49;96.10;100355.72;7402839;19;19922;-72
2023/12/29 10:55:11;;;;;;;14.45;2.03;;;;;;;9.50;95.16;100365.47;7403020;19;19919;-72
2023/12/29 10:57:41;;;;;;;13.77;1.73;;;;;;;9.53;94.54;100380.41;7401743;19;19918;-72
2023/12/29 11:00:12;;;;;;;15.55;2.42;;;;;;;9.57;94.29;100368.28;7402524;19;19923;-72
2023/12/29 11:02:41;;;;;;;12.40;2.80;;;;;;;9.60;94.35;100359.00;7402106;19;19923;-72
2023/12/29 11:05:11;;;;;;;7.25;1.83;;;;;;;9.62;92.76;100378.50;7402334;19;19919;-71
2023/12/29 11:07:44;;;;;;;12.13;2.10;;;;;;;9.56;90.50;100391.66;7402844;19;19918;-72
2023/12/29 11:10:12;;;;;;;9.80;2.33;;;;;;;9.60;90.16;100378.66;7404252;19;20376;-72
2023/12/29 11:12:41;;;;;;;10.68;2.00;;;;;;;9.58;90.54;100368.06;7402540;19;20582;-72
2023/12/29 11:15:10;;;;;;;10.07;2.00;;;;;;;9.53;91.07;100375.84;7402077;19;19925;-72
2023/12/29 11:17:39;;;;;;;13.73;1.83;;;;;;;9.49;91.17;100390.69;7401055;19;19926;-72
2023/12/29 11:20:08;;;;;;;11.10;2.00;;;;;;;9.43;91.53;100369.91;7401960;19;20611;-72
2023/12/29 11:22:37;;;;;;;9.65;3.15;;;;;;;9.32;92.31;100364.16;7402319;19;19942;-72
2023/12/29 11:25:10;;;;;;;8.77;2.25;;;;;;;9.21;92.94;100368.09;7401681;19;20583;-73
2023/12/29 11:27:39;;;;;;;8.63;1.77;;;;;;;9.12;92.54;100374.53;7401938;19;19914;-72
2023/12/29 11:30:12;;;;;;;9.15;1.60;;;;;;;9.11;92.41;100372.84;7401847;19;19919;-72
2023/12/29 11:33:05;;;;;;;7.97;1.13;;;;;;;9.18;90.95;100408.75;7400067;19;19967;-72
2023/12/29 11:35:58;;;;;;;6.07;1.23;;;;;;;9.19;87.78;100367.41;7398128;19;19915;-73
2023/12/29 11:38:43;;;;;;;13.82;1.70;;;;;;;9.26;86.22;100392.56;7401968;19;19942;-72
2023/12/29 11:41:24;;;;;;;7.00;1.10;;;;;;;9.44;84.31;100403.84;7400895;19;20525;-72